Buckingham, IL (60917)

4:34 PM CDT on September 04, 2015 (GMT -0500)
Herscher Fire Department | | Change Station
CLOSE
Current Station
Personal Weather Station
Location: Herscher, IL
Elevation: 656 ft
Nearby Weather Stations

Elev 656 ft 41.05 °N, 88.09 °W | Updated 7 minutes ago

Mostly Cloudy
Mostly Cloudy
89.5 °F
Feels Like 97 °F
N
4.0
Wind Variable Wind from NE
Gusts 6.0 mph

Today
High -- | Low -- °F
--% Chance of Precip.
Yesterday
High -- | Low -- °F
Precip. -- in
6:22 AM 7:20 PM
Waning Gibbous, 56% visible
Pressure 29.99 in
Visibility 10.0 miles
Clouds Scattered Clouds 5000 ft
Mostly Cloudy 7500 ft
Mostly Cloudy 11000 ft
Heat Index 97 °F
Dew Point 72 °F
Humidity 57%
Rainfall 0.00 in
Snow Depth Not available.
UV 2 out of 12
Pollen 8.90 out of 12
Air Quality Not available.
Flu Activity Not available.
METAR KIKK 042115Z AUTO 00000KT 10SM SCT050 BKN075 BKN110 32/22 A2999 RMK AO2 LTG DSNT SE THRU SW T03200221
Pressure 29.99 in
Visibility 10.0 miles
Clouds Scattered Clouds 5000 ft
Mostly Cloudy 7500 ft
Mostly Cloudy 11000 ft
Heat Index 97 °F
Dew Point 72 °F
Humidity 57%
Rainfall 0.00 in
Snow Depth Not available.
UV 2 out of 12
Pollen 8.90 out of 12
Air Quality Not available.
Flu Activity Not available.
METAR KIKK 042115Z AUTO 00000KT 10SM SCT050 BKN075 BKN110 32/22 A2999 RMK AO2 LTG DSNT SE THRU SW T03200221

10-Day Weather Forecast

×

Almanac

Astronomy

Sep. 04, 2015 Rise Set
Actual Time
Civil Twilight
Nautical Twilight
Astronomical Twilight
Moon
Length of Visible Light
Length of Day
Tomorrow will be .
, % of the Moon is Illuminated

Today's Extremes

State Highs State Lows

Community

WunderPhotos

Upload Photos

1,852,297 photos uploaded!

WunderBlogs® & News

Nearby

Air Quality

  Air Quality AQ Index Pollutant
Not available.

Snow Depth

Station Depth Elevation

Earthquake Activity

City Distance Mag. Time & Date
Minimum magnitude displayed is 2.5.

Coastal Water Temperatures

Place Temperature

Stations

Nearby Weather Stations

Station Location Temp. Windchill Dew Point Humidity Wind Precip. Elev Updated Type